createdAt,value
2022-12-22T00:00:23.278Z,26.02
2022-12-22T00:01:23.318Z,26.08
2022-12-22T00:02:23.515Z,26.05
2022-12-22T00:03:23.407Z,26.04
2022-12-22T00:54:34.202Z,25.89
2022-12-22T00:55:35.162Z,25.89
2022-12-22T00:56:35.155Z,25.84
2022-12-22T00:57:35.162Z,25.86
2022-12-22T00:58:35.135Z,25.86
2022-12-22T00:59:35.116Z,25.91
2022-12-22T01:00:35.116Z,25.89
2022-12-22T01:01:35.282Z,25.88
2022-12-22T01:02:35.389Z,25.86
2022-12-22T01:03:35.148Z,25.77
2022-12-22T01:04:35.068Z,25.86
2022-12-22T01:05:35.068Z,25.81
2022-12-22T01:06:35.043Z,25.83
2022-12-22T01:07:35.036Z,25.79
2022-12-22T01:08:35.025Z,25.80
2022-12-22T01:09:35.025Z,25.77
2022-12-22T01:10:35.032Z,25.81
2022-12-22T01:11:35.012Z,25.82
2022-12-22T01:12:34.991Z,25.82
2022-12-22T01:13:34.976Z,25.83
2022-12-22T01:14:34.978Z,25.83
2022-12-22T01:15:35.086Z,25.79
2022-12-22T01:16:35.025Z,25.79
2022-12-22T01:17:34.943Z,25.79
2022-12-22T01:18:34.936Z,25.77
2022-12-22T01:19:34.928Z,25.77
2022-12-22T01:20:34.916Z,25.77
2022-12-22T01:21:34.901Z,25.74
2022-12-22T01:22:34.896Z,25.76
2022-12-22T01:23:34.886Z,25.77
2022-12-22T01:24:34.880Z,25.79
2022-12-22T01:25:34.862Z,25.77
2022-12-22T01:26:34.893Z,25.76
2022-12-22T01:27:34.847Z,25.74
2022-12-22T01:28:34.840Z,25.79
2022-12-22T01:29:34.827Z,25.77
2022-12-22T01:30:34.885Z,25.76
2022-12-22T01:31:34.828Z,25.79
2022-12-22T01:32:34.797Z,25.79
2022-12-22T01:33:34.796Z,25.76
2022-12-22T01:34:34.780Z,25.77
2022-12-22T01:35:34.772Z,25.77
2022-12-22T01:36:34.764Z,25.80
2022-12-22T01:37:34.755Z,25.81
2022-12-22T01:38:34.746Z,25.76
2022-12-22T01:39:34.733Z,25.73
2022-12-22T01:40:34.728Z,25.80
2022-12-22T01:41:34.715Z,25.73
2022-12-22T01:42:34.735Z,25.79
2022-12-22T01:43:34.699Z,25.77
2022-12-22T01:44:34.690Z,25.80
2022-12-22T01:45:34.674Z,25.74
2022-12-22T01:46:34.705Z,25.79
2022-12-22T01:47:34.661Z,25.74
2022-12-22T01:48:34.647Z,25.76
2022-12-22T01:49:34.656Z,25.79
2022-12-22T01:50:34.625Z,25.76
2022-12-22T01:51:34.626Z,25.73
2022-12-22T01:52:34.620Z,25.78
2022-12-22T01:53:34.607Z,25.73
2022-12-22T01:54:34.586Z,25.70
2022-12-22T01:55:34.600Z,25.76
2022-12-22T01:56:34.574Z,25.79
2022-12-22T06:50:35.120Z,26.60
2022-12-22T16:44:05.323Z,27.85
2022-12-22T16:44:26.417Z,27.86
